sensor_id;sensor_type;location;lat;lon;timestamp;P1;durP1;ratioP1;P2;durP2;ratioP2
77123;SDS011;66079;47.646;19.130;2023-04-21T00:01:55;6.87;;;3.33;;
77123;SDS011;66079;47.646;19.130;2023-04-21T00:05:00;9.47;;;4.13;;
77123;SDS011;66079;47.646;19.130;2023-04-21T00:08:04;9.57;;;3.67;;
77123;SDS011;66079;47.646;19.130;2023-04-21T00:11:07;7.93;;;4.18;;
77123;SDS011;66079;47.646;19.130;2023-04-21T00:14:10;6.90;;;4.07;;
77123;SDS011;66079;47.646;19.130;2023-04-21T00:17:13;7.27;;;4.00;;
77123;SDS011;66079;47.646;19.130;2023-04-21T00:20:15;6.63;;;3.70;;
77123;SDS011;66079;47.646;19.130;2023-04-21T00:23:18;7.15;;;3.28;;
77123;SDS011;66079;47.646;19.130;2023-04-21T00:26:21;8.82;;;3.70;;
77123;SDS011;66079;47.646;19.130;2023-04-21T00:29:24;4.28;;;3.45;;
77123;SDS011;66079;47.646;19.130;2023-04-21T00:32:27;10.27;;;3.83;;
77123;SDS011;66079;47.646;19.130;2023-04-21T00:35:31;10.20;;;3.50;;
77123;SDS011;66079;47.646;19.130;2023-04-21T00:38:35;6.93;;;3.35;;
77123;SDS011;66079;47.646;19.130;2023-04-21T00:41:37;6.53;;;3.42;;
77123;SDS011;66079;47.646;19.130;2023-04-21T00:44:41;10.50;;;3.67;;
77123;SDS011;66079;47.646;19.130;2023-04-21T00:47:43;11.30;;;4.27;;
77123;SDS011;66079;47.646;19.130;2023-04-21T00:50:45;10.40;;;3.87;;
77123;SDS011;66079;47.646;19.130;2023-04-21T00:53:49;10.77;;;4.88;;
77123;SDS011;66079;47.646;19.130;2023-04-21T00:56:52;6.18;;;3.50;;
77123;SDS011;66079;47.646;19.130;2023-04-21T00:59:56;6.10;;;3.22;;
77123;SDS011;66079;47.646;19.130;2023-04-21T01:02:59;8.87;;;3.77;;
77123;SDS011;66079;47.646;19.130;2023-04-21T01:06:03;5.37;;;3.40;;
77123;SDS011;66079;47.646;19.130;2023-04-21T01:09:05;8.43;;;4.70;;
77123;SDS011;66079;47.646;19.130;2023-04-21T01:12:10;8.80;;;4.90;;
77123;SDS011;66079;47.646;19.130;2023-04-21T01:15:15;11.10;;;4.13;;
77123;SDS011;66079;47.646;19.130;2023-04-21T01:18:18;7.53;;;3.90;;
77123;SDS011;66079;47.646;19.130;2023-04-21T01:21:22;6.00;;;3.63;;
77123;SDS011;66079;47.646;19.130;2023-04-21T01:24:38;7.97;;;4.03;;
77123;SDS011;66079;47.646;19.130;2023-04-21T01:27:42;12.18;;;3.97;;
77123;SDS011;66079;47.646;19.130;2023-04-21T01:30:44;8.90;;;3.85;;
77123;SDS011;66079;47.646;19.130;2023-04-21T01:33:47;8.60;;;3.83;;
77123;SDS011;66079;47.646;19.130;2023-04-21T01:36:50;7.03;;;3.70;;
77123;SDS011;66079;47.646;19.130;2023-04-21T01:39:54;8.05;;;3.60;;
77123;SDS011;66079;47.646;19.130;2023-04-21T01:42:58;5.90;;;3.30;;
77123;SDS011;66079;47.646;19.130;2023-04-21T01:46:02;7.75;;;3.42;;
77123;SDS011;66079;47.646;19.130;2023-04-21T01:49:05;7.13;;;3.70;;
77123;SDS011;66079;47.646;19.130;2023-04-21T01:52:09;6.90;;;3.50;;
77123;SDS011;66079;47.646;19.130;2023-04-21T01:55:11;9.75;;;4.03;;
77123;SDS011;66079;47.646;19.130;2023-04-21T01:58:14;9.85;;;3.72;;
77123;SDS011;66079;47.646;19.130;2023-04-21T02:01:17;14.50;;;3.72;;
77123;SDS011;66079;47.646;19.130;2023-04-21T02:04:19;9.50;;;3.93;;
77123;SDS011;66079;47.646;19.130;2023-04-21T02:07:22;7.30;;;3.63;;
77123;SDS011;66079;47.646;19.130;2023-04-21T02:10:26;10.48;;;3.92;;
77123;SDS011;66079;47.646;19.130;2023-04-21T02:13:28;9.65;;;3.70;;
77123;SDS011;66079;47.646;19.130;2023-04-21T02:16:31;6.68;;;3.75;;
77123;SDS011;66079;47.646;19.130;2023-04-21T02:19:35;8.73;;;3.93;;
77123;SDS011;66079;47.646;19.130;2023-04-21T02:22:39;8.90;;;3.80;;
77123;SDS011;66079;47.646;19.130;2023-04-21T02:25:41;12.02;;;3.70;;
77123;SDS011;66079;47.646;19.130;2023-04-21T02:28:46;5.60;;;3.60;;
77123;SDS011;66079;47.646;19.130;2023-04-21T02:31:50;8.82;;;4.28;;
77123;SDS011;66079;47.646;19.130;2023-04-21T02:35:06;7.03;;;3.50;;
77123;SDS011;66079;47.646;19.130;2023-04-21T02:38:09;7.60;;;3.27;;
77123;SDS011;66079;47.646;19.130;2023-04-21T02:41:12;5.90;;;3.45;;
77123;SDS011;66079;47.646;19.130;2023-04-21T02:44:14;7.10;;;3.30;;
77123;SDS011;66079;47.646;19.130;2023-04-21T02:47:18;7.60;;;3.63;;
77123;SDS011;66079;47.646;19.130;2023-04-21T02:50:21;9.73;;;3.80;;
77123;SDS011;66079;47.646;19.130;2023-04-21T02:53:25;5.73;;;3.60;;
77123;SDS011;66079;47.646;19.130;2023-04-21T02:56:27;7.75;;;3.40;;
77123;SDS011;66079;47.646;19.130;2023-04-21T02:59:30;7.90;;;3.85;;
77123;SDS011;66079;47.646;19.130;2023-04-21T03:02:34;5.72;;;3.58;;
77123;SDS011;66079;47.646;19.130;2023-04-21T03:05:37;11.20;;;3.57;;
77123;SDS011;66079;47.646;19.130;2023-04-21T03:08:40;7.70;;;3.67;;
77123;SDS011;66079;47.646;19.130;2023-04-21T03:11:43;7.47;;;3.70;;
77123;SDS011;66079;47.646;19.130;2023-04-21T03:14:46;8.25;;;4.00;;
77123;SDS011;66079;47.646;19.130;2023-04-21T03:17:49;8.73;;;3.72;;
77123;SDS011;66079;47.646;19.130;2023-04-21T03:20:52;12.03;;;3.37;;
77123;SDS011;66079;47.646;19.130;2023-04-21T03:24:01;8.07;;;4.00;;
77123;SDS011;66079;47.646;19.130;2023-04-21T03:27:04;4.68;;;3.30;;
77123;SDS011;66079;47.646;19.130;2023-04-21T03:30:07;10.07;;;3.50;;
77123;SDS011;66079;47.646;19.130;2023-04-21T03:33:10;7.93;;;4.00;;
77123;SDS011;66079;47.646;19.130;2023-04-21T03:36:13;12.87;;;4.03;;
77123;SDS011;66079;47.646;19.130;2023-04-21T03:39:15;9.63;;;3.40;;
77123;SDS011;66079;47.646;19.130;2023-04-21T03:42:23;8.90;;;3.55;;
77123;SDS011;66079;47.646;19.130;2023-04-21T03:45:27;10.93;;;3.47;;
77123;SDS011;66079;47.646;19.130;2023-04-21T03:48:29;10.10;;;3.60;;
77123;SDS011;66079;47.646;19.130;2023-04-21T03:51:33;7.87;;;3.73;;
77123;SDS011;66079;47.646;19.130;2023-04-21T03:54:35;10.43;;;3.90;;
77123;SDS011;66079;47.646;19.130;2023-04-21T03:57:38;5.03;;;3.28;;
77123;SDS011;66079;47.646;19.130;2023-04-21T04:00:43;7.32;;;3.00;;
77123;SDS011;66079;47.646;19.130;2023-04-21T04:03:46;8.73;;;3.17;;
77123;SDS011;66079;47.646;19.130;2023-04-21T04:06:50;7.37;;;3.53;;
77123;SDS011;66079;47.646;19.130;2023-04-21T04:09:53;9.37;;;3.80;;
77123;SDS011;66079;47.646;19.130;2023-04-21T04:12:55;12.95;;;3.70;;
77123;SDS011;66079;47.646;19.130;2023-04-21T04:15:58;6.65;;;3.80;;
77123;SDS011;66079;47.646;19.130;2023-04-21T04:19:02;6.13;;;3.40;;
77123;SDS011;66079;47.646;19.130;2023-04-21T04:22:05;7.10;;;3.80;;
77123;SDS011;66079;47.646;19.130;2023-04-21T04:25:10;8.77;;;3.70;;
77123;SDS011;66079;47.646;19.130;2023-04-21T04:28:16;6.53;;;3.92;;
77123;SDS011;66079;47.646;19.130;2023-04-21T04:31:18;9.77;;;3.55;;
77123;SDS011;66079;47.646;19.130;2023-04-21T04:34:21;8.20;;;3.75;;
77123;SDS011;66079;47.646;19.130;2023-04-21T04:37:24;11.53;;;3.70;;
77123;SDS011;66079;47.646;19.130;2023-04-21T04:40:27;7.93;;;3.70;;
77123;SDS011;66079;47.646;19.130;2023-04-21T04:43:31;6.97;;;4.10;;
77123;SDS011;66079;47.646;19.130;2023-04-21T04:46:40;13.77;;;4.70;;
77123;SDS011;66079;47.646;19.130;2023-04-21T04:49:44;11.27;;;4.75;;
77123;SDS011;66079;47.646;19.130;2023-04-21T04:52:46;10.73;;;4.03;;
77123;SDS011;66079;47.646;19.130;2023-04-21T04:55:50;8.00;;;4.00;;
77123;SDS011;66079;47.646;19.130;2023-04-21T04:58:53;9.20;;;3.85;;
77123;SDS011;66079;47.646;19.130;2023-04-21T05:01:55;12.27;;;3.63;;
77123;SDS011;66079;47.646;19.130;2023-04-21T05:04:58;8.80;;;4.15;;
77123;SDS011;66079;47.646;19.130;2023-04-21T05:08:01;8.17;;;3.90;;
77123;SDS011;66079;47.646;19.130;2023-04-21T05:11:03;9.80;;;4.07;;
77123;SDS011;66079;47.646;19.130;2023-04-21T05:14:06;5.97;;;3.50;;
77123;SDS011;66079;47.646;19.130;2023-04-21T05:17:09;11.93;;;3.92;;
77123;SDS011;66079;47.646;19.130;2023-04-21T05:20:12;10.23;;;3.72;;
77123;SDS011;66079;47.646;19.130;2023-04-21T05:23:15;12.83;;;3.90;;
77123;SDS011;66079;47.646;19.130;2023-04-21T05:26:18;10.20;;;3.10;;
77123;SDS011;66079;47.646;19.130;2023-04-21T05:29:20;9.07;;;3.40;;
77123;SDS011;66079;47.646;19.130;2023-04-21T05:32:23;11.23;;;3.05;;
77123;SDS011;66079;47.646;19.130;2023-04-21T05:35:25;13.65;;;3.20;;
77123;SDS011;66079;47.646;19.130;2023-04-21T05:38:28;10.27;;;2.73;;
77123;SDS011;66079;47.646;19.130;2023-04-21T05:41:31;10.63;;;2.83;;
77123;SDS011;66079;47.646;19.130;2023-04-21T05:44:33;8.32;;;2.47;;
77123;SDS011;66079;47.646;19.130;2023-04-21T05:47:36;12.40;;;2.85;;
77123;SDS011;66079;47.646;19.130;2023-04-21T05:50:40;9.18;;;2.83;;
77123;SDS011;66079;47.646;19.130;2023-04-21T05:53:43;6.70;;;3.03;;
77123;SDS011;66079;47.646;19.130;2023-04-21T05:56:46;10.73;;;3.10;;
77123;SDS011;66079;47.646;19.130;2023-04-21T05:59:49;5.57;;;2.92;;
77123;SDS011;66079;47.646;19.130;2023-04-21T06:02:52;8.63;;;2.63;;
77123;SDS011;66079;47.646;19.130;2023-04-21T06:05:55;9.23;;;2.97;;
77123;SDS011;66079;47.646;19.130;2023-04-21T06:08:58;9.97;;;3.23;;
77123;SDS011;66079;47.646;19.130;2023-04-21T06:12:01;7.20;;;2.50;;
77123;SDS011;66079;47.646;19.130;2023-04-21T06:15:04;7.85;;;2.85;;
77123;SDS011;66079;47.646;19.130;2023-04-21T06:18:07;9.82;;;2.70;;
77123;SDS011;66079;47.646;19.130;2023-04-21T06:21:10;7.55;;;2.55;;
77123;SDS011;66079;47.646;19.130;2023-04-21T06:24:12;8.10;;;2.73;;
77123;SDS011;66079;47.646;19.130;2023-04-21T06:27:15;7.40;;;2.70;;
77123;SDS011;66079;47.646;19.130;2023-04-21T06:30:18;6.60;;;2.85;;
77123;SDS011;66079;47.646;19.130;2023-04-21T06:33:20;15.23;;;3.13;;
77123;SDS011;66079;47.646;19.130;2023-04-21T06:36:23;4.47;;;2.10;;
77123;SDS011;66079;47.646;19.130;2023-04-21T06:39:26;7.00;;;2.87;;
77123;SDS011;66079;47.646;19.130;2023-04-21T06:42:28;8.90;;;3.10;;
77123;SDS011;66079;47.646;19.130;2023-04-21T06:45:32;10.63;;;2.50;;
77123;SDS011;66079;47.646;19.130;2023-04-21T06:48:34;9.27;;;2.85;;
77123;SDS011;66079;47.646;19.130;2023-04-21T06:51:37;8.60;;;2.90;;
77123;SDS011;66079;47.646;19.130;2023-04-21T06:54:39;7.33;;;3.10;;
77123;SDS011;66079;47.646;19.130;2023-04-21T06:57:42;8.03;;;3.10;;
77123;SDS011;66079;47.646;19.130;2023-04-21T07:00:44;9.48;;;2.90;;
77123;SDS011;66079;47.646;19.130;2023-04-21T07:03:52;7.72;;;2.55;;
77123;SDS011;66079;47.646;19.130;2023-04-21T07:06:55;9.95;;;3.50;;
77123;SDS011;66079;47.646;19.130;2023-04-21T07:09:58;5.90;;;3.30;;
77123;SDS011;66079;47.646;19.130;2023-04-21T07:13:00;11.23;;;3.10;;
77123;SDS011;66079;47.646;19.130;2023-04-21T07:16:03;8.93;;;2.95;;
77123;SDS011;66079;47.646;19.130;2023-04-21T07:19:07;5.75;;;2.53;;
77123;SDS011;66079;47.646;19.130;2023-04-21T07:22:17;8.75;;;2.40;;
77123;SDS011;66079;47.646;19.130;2023-04-21T07:25:20;4.97;;;2.17;;
77123;SDS011;66079;47.646;19.130;2023-04-21T07:28:24;8.77;;;2.80;;
77123;SDS011;66079;47.646;19.130;2023-04-21T07:31:27;8.02;;;2.38;;
77123;SDS011;66079;47.646;19.130;2023-04-21T07:34:30;11.88;;;2.60;;
77123;SDS011;66079;47.646;19.130;2023-04-21T07:37:32;12.07;;;2.70;;
77123;SDS011;66079;47.646;19.130;2023-04-21T07:40:35;6.83;;;2.53;;
77123;SDS011;66079;47.646;19.130;2023-04-21T07:43:38;9.37;;;3.03;;
77123;SDS011;66079;47.646;19.130;2023-04-21T07:46:41;7.25;;;2.67;;
77123;SDS011;66079;47.646;19.130;2023-04-21T07:49:43;9.30;;;2.75;;
77123;SDS011;66079;47.646;19.130;2023-04-21T07:52:46;11.98;;;2.67;;
77123;SDS011;66079;47.646;19.130;2023-04-21T07:55:49;7.63;;;2.53;;
77123;SDS011;66079;47.646;19.130;2023-04-21T07:58:52;9.20;;;3.67;;
77123;SDS011;66079;47.646;19.130;2023-04-21T08:01:54;7.95;;;2.67;;
77123;SDS011;66079;47.646;19.130;2023-04-21T08:04:58;10.95;;;2.60;;
77123;SDS011;66079;47.646;19.130;2023-04-21T08:08:01;7.75;;;2.50;;
77123;SDS011;66079;47.646;19.130;2023-04-21T08:11:03;9.57;;;2.73;;
77123;SDS011;66079;47.646;19.130;2023-04-21T08:14:06;7.10;;;2.50;;
77123;SDS011;66079;47.646;19.130;2023-04-21T08:17:11;6.70;;;2.88;;
77123;SDS011;66079;47.646;19.130;2023-04-21T08:20:13;4.95;;;2.97;;
77123;SDS011;66079;47.646;19.130;2023-04-21T08:23:16;8.30;;;3.20;;
77123;SDS011;66079;47.646;19.130;2023-04-21T08:26:21;7.30;;;2.93;;
77123;SDS011;66079;47.646;19.130;2023-04-21T08:29:24;9.10;;;3.20;;
77123;SDS011;66079;47.646;19.130;2023-04-21T08:32:27;6.63;;;2.78;;
77123;SDS011;66079;47.646;19.130;2023-04-21T08:35:30;7.50;;;3.60;;
77123;SDS011;66079;47.646;19.130;2023-04-21T08:38:33;5.68;;;3.22;;
77123;SDS011;66079;47.646;19.130;2023-04-21T08:41:37;7.80;;;2.90;;
77123;SDS011;66079;47.646;19.130;2023-04-21T08:44:43;8.13;;;3.17;;
77123;SDS011;66079;47.646;19.130;2023-04-21T08:47:46;7.25;;;3.15;;
77123;SDS011;66079;47.646;19.130;2023-04-21T08:50:51;5.78;;;3.10;;
77123;SDS011;66079;47.646;19.130;2023-04-21T08:53:54;13.30;;;3.30;;
77123;SDS011;66079;47.646;19.130;2023-04-21T08:56:58;10.40;;;3.77;;
77123;SDS011;66079;47.646;19.130;2023-04-21T09:00:15;9.17;;;4.23;;
77123;SDS011;66079;47.646;19.130;2023-04-21T09:03:21;7.75;;;3.47;;
77123;SDS011;66079;47.646;19.130;2023-04-21T09:06:38;9.30;;;4.35;;
77123;SDS011;66079;47.646;19.130;2023-04-21T09:09:54;5.63;;;3.35;;
77123;SDS011;66079;47.646;19.130;2023-04-21T09:12:58;7.37;;;3.90;;
77123;SDS011;66079;47.646;19.130;2023-04-21T09:16:02;8.03;;;3.63;;
77123;SDS011;66079;47.646;19.130;2023-04-21T09:19:13;7.93;;;3.92;;
77123;SDS011;66079;47.646;19.130;2023-04-21T09:22:19;7.40;;;3.70;;
77123;SDS011;66079;47.646;19.130;2023-04-21T09:25:22;9.85;;;3.80;;
77123;SDS011;66079;47.646;19.130;2023-04-21T09:28:27;9.97;;;3.67;;
77123;SDS011;66079;47.646;19.130;2023-04-21T09:31:34;5.77;;;3.53;;
77123;SDS011;66079;47.646;19.130;2023-04-21T09:34:39;8.65;;;3.67;;
77123;SDS011;66079;47.646;19.130;2023-04-21T09:37:44;8.50;;;3.80;;
77123;SDS011;66079;47.646;19.130;2023-04-21T09:40:56;6.93;;;3.67;;
77123;SDS011;66079;47.646;19.130;2023-04-21T09:43:59;5.37;;;3.70;;
77123;SDS011;66079;47.646;19.130;2023-04-21T09:47:03;10.03;;;3.83;;
77123;SDS011;66079;47.646;19.130;2023-04-21T09:50:08;9.55;;;4.20;;
77123;SDS011;66079;47.646;19.130;2023-04-21T09:53:15;6.72;;;3.70;;
77123;SDS011;66079;47.646;19.130;2023-04-21T09:56:23;6.28;;;3.70;;
77123;SDS011;66079;47.646;19.130;2023-04-21T09:59:36;6.07;;;3.50;;
77123;SDS011;66079;47.646;19.130;2023-04-21T10:02:43;6.47;;;3.60;;
77123;SDS011;66079;47.646;19.130;2023-04-21T10:05:49;6.53;;;3.70;;
77123;SDS011;66079;47.646;19.130;2023-04-21T10:08:51;6.13;;;3.53;;
77123;SDS011;66079;47.646;19.130;2023-04-21T10:11:59;6.47;;;3.95;;
77123;SDS011;66079;47.646;19.130;2023-04-21T10:15:04;9.23;;;3.80;;
77123;SDS011;66079;47.646;19.130;2023-04-21T10:18:14;7.70;;;3.80;;
77123;SDS011;66079;47.646;19.130;2023-04-21T10:21:22;6.53;;;4.00;;
77123;SDS011;66079;47.646;19.130;2023-04-21T10:24:28;6.65;;;3.78;;
77123;SDS011;66079;47.646;19.130;2023-04-21T10:30:40;7.20;;;3.80;;
77123;SDS011;66079;47.646;19.130;2023-04-21T10:34:10;7.57;;;4.10;;
77123;SDS011;66079;47.646;19.130;2023-04-21T10:37:15;9.55;;;4.32;;
77123;SDS011;66079;47.646;19.130;2023-04-21T10:43:47;6.25;;;3.65;;
77123;SDS011;66079;47.646;19.130;2023-04-21T10:46:52;8.37;;;3.87;;
77123;SDS011;66079;47.646;19.130;2023-04-21T10:49:55;6.50;;;4.33;;
77123;SDS011;66079;47.646;19.130;2023-04-21T10:53:09;6.95;;;3.63;;
77123;SDS011;66079;47.646;19.130;2023-04-21T10:56:13;10.15;;;3.65;;
77123;SDS011;66079;47.646;19.130;2023-04-21T10:59:17;6.75;;;3.72;;
77123;SDS011;66079;47.646;19.130;2023-04-21T11:02:20;6.23;;;4.10;;
77123;SDS011;66079;47.646;19.130;2023-04-21T11:05:26;8.57;;;3.97;;
77123;SDS011;66079;47.646;19.130;2023-04-21T11:08:29;6.90;;;3.85;;
77123;SDS011;66079;47.646;19.130;2023-04-21T11:11:32;7.03;;;3.70;;
77123;SDS011;66079;47.646;19.130;2023-04-21T11:14:36;5.35;;;3.60;;
77123;SDS011;66079;47.646;19.130;2023-04-21T11:17:40;6.73;;;4.00;;
77123;SDS011;66079;47.646;19.130;2023-04-21T11:20:45;7.10;;;3.90;;
77123;SDS011;66079;47.646;19.130;2023-04-21T11:23:55;7.70;;;3.95;;
77123;SDS011;66079;47.646;19.130;2023-04-21T11:26:58;7.20;;;3.97;;
77123;SDS011;66079;47.646;19.130;2023-04-21T11:30:04;6.78;;;3.58;;
77123;SDS011;66079;47.646;19.130;2023-04-21T11:33:07;10.00;;;3.60;;
77123;SDS011;66079;47.646;19.130;2023-04-21T11:39:46;6.47;;;3.58;;
77123;SDS011;66079;47.646;19.130;2023-04-21T11:42:48;11.95;;;3.72;;
77123;SDS011;66079;47.646;19.130;2023-04-21T11:45:51;9.75;;;4.07;;
77123;SDS011;66079;47.646;19.130;2023-04-21T11:55:35;5.88;;;3.60;;
77123;SDS011;66079;47.646;19.130;2023-04-21T11:58:38;7.80;;;3.72;;
77123;SDS011;66079;47.646;19.130;2023-04-21T12:01:50;6.90;;;3.70;;
77123;SDS011;66079;47.646;19.130;2023-04-21T12:04:58;7.33;;;4.00;;
77123;SDS011;66079;47.646;19.130;2023-04-21T12:08:03;6.20;;;3.67;;
77123;SDS011;66079;47.646;19.130;2023-04-21T12:11:07;7.45;;;3.80;;
77123;SDS011;66079;47.646;19.130;2023-04-21T12:14:10;8.40;;;3.92;;
77123;SDS011;66079;47.646;19.130;2023-04-21T12:17:12;6.63;;;3.78;;
77123;SDS011;66079;47.646;19.130;2023-04-21T12:20:16;8.13;;;3.50;;
77123;SDS011;66079;47.646;19.130;2023-04-21T12:23:20;5.67;;;3.60;;
77123;SDS011;66079;47.646;19.130;2023-04-21T12:26:23;5.85;;;4.00;;
77123;SDS011;66079;47.646;19.130;2023-04-21T12:29:25;6.65;;;3.80;;
77123;SDS011;66079;47.646;19.130;2023-04-21T12:32:28;6.32;;;3.92;;
77123;SDS011;66079;47.646;19.130;2023-04-21T12:35:30;5.53;;;3.60;;
77123;SDS011;66079;47.646;19.130;2023-04-21T12:38:34;4.00;;;3.33;;
77123;SDS011;66079;47.646;19.130;2023-04-21T12:41:37;9.32;;;3.80;;
77123;SDS011;66079;47.646;19.130;2023-04-21T12:44:39;6.90;;;4.00;;
77123;SDS011;66079;47.646;19.130;2023-04-21T12:47:42;6.57;;;3.65;;
77123;SDS011;66079;47.646;19.130;2023-04-21T12:50:48;7.23;;;3.80;;
77123;SDS011;66079;47.646;19.130;2023-04-21T12:53:50;7.13;;;3.87;;
77123;SDS011;66079;47.646;19.130;2023-04-21T12:56:53;10.07;;;4.15;;
77123;SDS011;66079;47.646;19.130;2023-04-21T12:59:56;9.43;;;4.30;;
77123;SDS011;66079;47.646;19.130;2023-04-21T13:02:58;7.95;;;3.70;;
77123;SDS011;66079;47.646;19.130;2023-04-21T13:06:01;9.80;;;3.57;;
77123;SDS011;66079;47.646;19.130;2023-04-21T13:09:04;8.20;;;4.17;;
77123;SDS011;66079;47.646;19.130;2023-04-21T13:12:07;6.70;;;3.90;;
77123;SDS011;66079;47.646;19.130;2023-04-21T13:15:10;10.15;;;3.80;;
77123;SDS011;66079;47.646;19.130;2023-04-21T13:18:13;8.60;;;3.75;;
77123;SDS011;66079;47.646;19.130;2023-04-21T13:21:15;8.60;;;3.90;;
77123;SDS011;66079;47.646;19.130;2023-04-21T13:24:18;9.17;;;3.83;;
77123;SDS011;66079;47.646;19.130;2023-04-21T13:27:21;12.77;;;3.70;;
77123;SDS011;66079;47.646;19.130;2023-04-21T13:30:23;7.65;;;3.83;;
77123;SDS011;66079;47.646;19.130;2023-04-21T13:33:26;8.85;;;3.90;;
77123;SDS011;66079;47.646;19.130;2023-04-21T13:36:29;5.23;;;3.60;;
77123;SDS011;66079;47.646;19.130;2023-04-21T13:39:32;5.70;;;3.80;;
77123;SDS011;66079;47.646;19.130;2023-04-21T13:42:36;6.40;;;3.70;;
77123;SDS011;66079;47.646;19.130;2023-04-21T13:45:39;6.28;;;3.53;;
77123;SDS011;66079;47.646;19.130;2023-04-21T13:48:43;7.10;;;4.07;;
77123;SDS011;66079;47.646;19.130;2023-04-21T13:51:46;6.83;;;3.67;;
77123;SDS011;66079;47.646;19.130;2023-04-21T13:54:49;9.13;;;4.17;;
77123;SDS011;66079;47.646;19.130;2023-04-21T13:57:53;6.50;;;4.07;;
77123;SDS011;66079;47.646;19.130;2023-04-21T14:00:56;5.07;;;3.65;;
77123;SDS011;66079;47.646;19.130;2023-04-21T14:04:00;7.68;;;4.10;;
77123;SDS011;66079;47.646;19.130;2023-04-21T14:07:03;5.33;;;3.93;;
77123;SDS011;66079;47.646;19.130;2023-04-21T14:10:07;6.87;;;3.63;;
77123;SDS011;66079;47.646;19.130;2023-04-21T14:13:10;5.90;;;3.60;;
77123;SDS011;66079;47.646;19.130;2023-04-21T14:16:28;7.05;;;3.83;;
77123;SDS011;66079;47.646;19.130;2023-04-21T14:19:31;4.68;;;3.67;;
77123;SDS011;66079;47.646;19.130;2023-04-21T14:22:34;5.23;;;3.93;;
77123;SDS011;66079;47.646;19.130;2023-04-21T14:25:37;6.67;;;4.30;;
77123;SDS011;66079;47.646;19.130;2023-04-21T14:28:39;7.45;;;4.00;;
77123;SDS011;66079;47.646;19.130;2023-04-21T14:31:42;6.55;;;4.05;;
77123;SDS011;66079;47.646;19.130;2023-04-21T14:34:45;5.85;;;3.63;;
77123;SDS011;66079;47.646;19.130;2023-04-21T14:37:59;6.30;;;3.97;;
77123;SDS011;66079;47.646;19.130;2023-04-21T14:41:02;6.50;;;3.87;;
77123;SDS011;66079;47.646;19.130;2023-04-21T14:44:04;5.43;;;3.67;;
77123;SDS011;66079;47.646;19.130;2023-04-21T14:47:07;6.80;;;4.20;;
77123;SDS011;66079;47.646;19.130;2023-04-21T14:50:12;5.57;;;4.20;;
77123;SDS011;66079;47.646;19.130;2023-04-21T14:53:14;7.87;;;4.03;;
77123;SDS011;66079;47.646;19.130;2023-04-21T14:56:17;4.57;;;3.87;;
77123;SDS011;66079;47.646;19.130;2023-04-21T14:59:20;5.55;;;3.72;;
77123;SDS011;66079;47.646;19.130;2023-04-21T15:02:24;5.35;;;4.00;;
77123;SDS011;66079;47.646;19.130;2023-04-21T15:05:27;6.47;;;3.70;;
77123;SDS011;66079;47.646;19.130;2023-04-21T15:08:30;5.50;;;4.00;;
77123;SDS011;66079;47.646;19.130;2023-04-21T15:11:33;6.30;;;4.10;;
77123;SDS011;66079;47.646;19.130;2023-04-21T15:14:35;4.75;;;4.05;;
77123;SDS011;66079;47.646;19.130;2023-04-21T15:17:38;5.03;;;4.00;;
77123;SDS011;66079;47.646;19.130;2023-04-21T15:20:41;5.03;;;3.65;;
77123;SDS011;66079;47.646;19.130;2023-04-21T15:23:47;7.47;;;4.17;;
77123;SDS011;66079;47.646;19.130;2023-04-21T15:26:49;5.10;;;4.43;;
77123;SDS011;66079;47.646;19.130;2023-04-21T15:29:51;8.57;;;4.15;;
77123;SDS011;66079;47.646;19.130;2023-04-21T15:32:54;5.93;;;4.00;;
77123;SDS011;66079;47.646;19.130;2023-04-21T15:35:57;5.28;;;3.70;;
77123;SDS011;66079;47.646;19.130;2023-04-21T15:38:59;6.00;;;3.50;;
77123;SDS011;66079;47.646;19.130;2023-04-21T15:42:03;4.83;;;3.73;;
77123;SDS011;66079;47.646;19.130;2023-04-21T15:45:06;5.82;;;3.83;;
77123;SDS011;66079;47.646;19.130;2023-04-21T15:48:09;5.15;;;3.72;;
77123;SDS011;66079;47.646;19.130;2023-04-21T15:51:14;6.55;;;3.88;;
77123;SDS011;66079;47.646;19.130;2023-04-21T15:54:17;3.70;;;3.20;;
77123;SDS011;66079;47.646;19.130;2023-04-21T15:57:19;4.83;;;3.50;;
77123;SDS011;66079;47.646;19.130;2023-04-21T16:00:22;4.28;;;3.20;;
77123;SDS011;66079;47.646;19.130;2023-04-21T16:03:25;6.55;;;3.70;;
77123;SDS011;66079;47.646;19.130;2023-04-21T16:06:28;6.18;;;3.80;;
77123;SDS011;66079;47.646;19.130;2023-04-21T16:09:32;5.63;;;3.73;;
77123;SDS011;66079;47.646;19.130;2023-04-21T16:12:34;6.67;;;3.73;;
77123;SDS011;66079;47.646;19.130;2023-04-21T16:15:37;5.57;;;3.70;;
77123;SDS011;66079;47.646;19.130;2023-04-21T16:18:40;5.65;;;3.83;;
77123;SDS011;66079;47.646;19.130;2023-04-21T16:21:43;5.32;;;3.90;;
77123;SDS011;66079;47.646;19.130;2023-04-21T16:24:46;5.03;;;3.73;;
77123;SDS011;66079;47.646;19.130;2023-04-21T16:27:49;7.37;;;4.00;;
77123;SDS011;66079;47.646;19.130;2023-04-21T16:30:52;4.72;;;3.50;;
77123;SDS011;66079;47.646;19.130;2023-04-21T16:33:54;7.20;;;4.07;;
77123;SDS011;66079;47.646;19.130;2023-04-21T16:37:01;6.30;;;3.83;;
77123;SDS011;66079;47.646;19.130;2023-04-21T16:40:04;6.40;;;3.87;;
77123;SDS011;66079;47.646;19.130;2023-04-21T16:43:09;4.97;;;3.50;;
77123;SDS011;66079;47.646;19.130;2023-04-21T16:46:11;5.45;;;3.58;;
77123;SDS011;66079;47.646;19.130;2023-04-21T16:49:14;6.32;;;4.22;;
77123;SDS011;66079;47.646;19.130;2023-04-21T16:52:17;5.97;;;3.83;;
77123;SDS011;66079;47.646;19.130;2023-04-21T16:55:19;4.83;;;3.67;;
77123;SDS011;66079;47.646;19.130;2023-04-21T16:58:22;4.87;;;3.60;;
77123;SDS011;66079;47.646;19.130;2023-04-21T17:01:25;7.78;;;3.97;;
77123;SDS011;66079;47.646;19.130;2023-04-21T17:04:28;5.32;;;4.00;;
77123;SDS011;66079;47.646;19.130;2023-04-21T17:07:30;8.60;;;3.83;;
77123;SDS011;66079;47.646;19.130;2023-04-21T17:10:35;7.83;;;3.77;;
77123;SDS011;66079;47.646;19.130;2023-04-21T17:13:37;5.77;;;3.27;;
77123;SDS011;66079;47.646;19.130;2023-04-21T17:16:40;6.35;;;3.83;;
77123;SDS011;66079;47.646;19.130;2023-04-21T17:19:43;8.05;;;3.72;;
77123;SDS011;66079;47.646;19.130;2023-04-21T17:22:45;6.10;;;3.60;;
77123;SDS011;66079;47.646;19.130;2023-04-21T17:25:48;5.93;;;3.70;;
77123;SDS011;66079;47.646;19.130;2023-04-21T17:28:51;5.60;;;3.63;;
77123;SDS011;66079;47.646;19.130;2023-04-21T17:31:53;7.75;;;4.10;;
77123;SDS011;66079;47.646;19.130;2023-04-21T17:34:57;5.63;;;3.92;;
77123;SDS011;66079;47.646;19.130;2023-04-21T17:37:59;6.15;;;3.90;;
77123;SDS011;66079;47.646;19.130;2023-04-21T17:41:02;7.70;;;4.03;;
77123;SDS011;66079;47.646;19.130;2023-04-21T17:44:07;6.60;;;3.90;;
77123;SDS011;66079;47.646;19.130;2023-04-21T17:47:10;7.07;;;4.25;;
77123;SDS011;66079;47.646;19.130;2023-04-21T17:50:17;7.57;;;4.00;;
77123;SDS011;66079;47.646;19.130;2023-04-21T17:53:20;7.10;;;4.00;;
77123;SDS011;66079;47.646;19.130;2023-04-21T17:56:22;7.13;;;3.70;;
77123;SDS011;66079;47.646;19.130;2023-04-21T17:59:25;6.67;;;3.77;;
77123;SDS011;66079;47.646;19.130;2023-04-21T18:02:28;6.75;;;4.10;;
77123;SDS011;66079;47.646;19.130;2023-04-21T18:05:31;8.00;;;4.07;;
77123;SDS011;66079;47.646;19.130;2023-04-21T18:08:34;7.15;;;4.00;;
77123;SDS011;66079;47.646;19.130;2023-04-21T18:11:36;9.43;;;4.30;;
77123;SDS011;66079;47.646;19.130;2023-04-21T18:14:39;6.87;;;4.27;;
77123;SDS011;66079;47.646;19.130;2023-04-21T18:17:42;6.75;;;3.80;;
77123;SDS011;66079;47.646;19.130;2023-04-21T18:20:45;6.95;;;4.05;;
77123;SDS011;66079;47.646;19.130;2023-04-21T18:23:47;7.15;;;4.07;;
77123;SDS011;66079;47.646;19.130;2023-04-21T18:26:50;5.43;;;4.30;;